sensor_id;sensor_type;location;lat;lon;timestamp;temperature;humidity
47384;DHT22;33129;52.232;5.192;2022-11-30T00:01:50;12.40;1.00
47384;DHT22;33129;52.232;5.192;2022-11-30T00:05:02;12.30;1.00
47384;DHT22;33129;52.232;5.192;2022-11-30T00:08:13;12.10;1.00
47384;DHT22;33129;52.232;5.192;2022-11-30T00:10:47;12.30;1.00
47384;DHT22;33129;52.232;5.192;2022-11-30T00:14:05;12.30;1.00
47384;DHT22;33129;52.232;5.192;2022-11-30T00:17:23;12.20;1.00
47384;DHT22;33129;52.232;5.192;2022-11-30T00:20:43;12.10;1.00
47384;DHT22;33129;52.232;5.192;2022-11-30T00:24:01;12.30;1.00
47384;DHT22;33129;52.232;5.192;2022-11-30T00:27:19;12.30;1.00
47384;DHT22;33129;52.232;5.192;2022-11-30T00:30:37;12.40;1.00
47384;DHT22;33129;52.232;5.192;2022-11-30T00:33:56;12.30;1.00
47384;DHT22;33129;52.232;5.192;2022-11-30T00:37:14;12.10;1.00
47384;DHT22;33129;52.232;5.192;2022-11-30T00:40:32;12.20;1.00
47384;DHT22;33129;52.232;5.192;2022-11-30T00:43:13;12.10;1.00
47384;DHT22;33129;52.232;5.192;2022-11-30T00:46:32;12.40;1.00
47384;DHT22;33129;52.232;5.192;2022-11-30T00:49:32;12.20;1.00
47384;DHT22;33129;52.232;5.192;2022-11-30T00:52:50;12.00;1.00
47384;DHT22;33129;52.232;5.192;2022-11-30T00:55:18;12.10;1.00
47384;DHT22;33129;52.232;5.192;2022-11-30T00:58:13;12.30;1.00
47384;DHT22;33129;52.232;5.192;2022-11-30T01:00:54;12.30;1.00
47384;DHT22;33129;52.232;5.192;2022-11-30T01:03:45;12.20;1.00
47384;DHT22;33129;52.232;5.192;2022-11-30T01:07:03;12.40;1.00
47384;DHT22;33129;52.232;5.192;2022-11-30T01:10:23;12.00;1.00
47384;DHT22;33129;52.232;5.192;2022-11-30T01:13:43;12.20;1.00
47384;DHT22;33129;52.232;5.192;2022-11-30T01:17:01;12.00;1.00
47384;DHT22;33129;52.232;5.192;2022-11-30T01:19:27;12.40;1.00
47384;DHT22;33129;52.232;5.192;2022-11-30T01:22:45;12.40;1.00
47384;DHT22;33129;52.232;5.192;2022-11-30T01:26:04;12.10;1.00
47384;DHT22;33129;52.232;5.192;2022-11-30T01:28:57;12.50;1.00
47384;DHT22;33129;52.232;5.192;2022-11-30T01:32:16;12.40;1.00
47384;DHT22;33129;52.232;5.192;2022-11-30T01:35:15;12.50;1.00
47384;DHT22;33129;52.232;5.192;2022-11-30T01:38:54;12.20;1.00
47384;DHT22;33129;52.232;5.192;2022-11-30T01:41:53;12.20;1.00
47384;DHT22;33129;52.232;5.192;2022-11-30T01:45:12;12.30;1.00
47384;DHT22;33129;52.232;5.192;2022-11-30T01:47:50;12.30;1.00
47384;DHT22;33129;52.232;5.192;2022-11-30T01:51:01;12.40;1.00
47384;DHT22;33129;52.232;5.192;2022-11-30T01:54:28;12.40;1.00
47384;DHT22;33129;52.232;5.192;2022-11-30T01:58:15;12.20;1.00
47384;DHT22;33129;52.232;5.192;2022-11-30T02:01:35;12.30;1.00
47384;DHT22;33129;52.232;5.192;2022-11-30T02:05:10;12.20;1.00
47384;DHT22;33129;52.232;5.192;2022-11-30T02:08:29;12.40;1.00
47384;DHT22;33129;52.232;5.192;2022-11-30T02:11:48;12.20;1.00
47384;DHT22;33129;52.232;5.192;2022-11-30T02:15:30;12.40;1.00
47384;DHT22;33129;52.232;5.192;2022-11-30T02:31:19;12.10;1.00
47384;DHT22;33129;52.232;5.192;2022-11-30T02:34:26;12.10;1.00
47384;DHT22;33129;52.232;5.192;2022-11-30T02:36:56;12.10;1.00
47384;DHT22;33129;52.232;5.192;2022-11-30T02:39:23;12.20;1.00
47384;DHT22;33129;52.232;5.192;2022-11-30T02:41:49;12.10;1.00
47384;DHT22;33129;52.232;5.192;2022-11-30T02:45:08;12.30;1.00
47384;DHT22;33129;52.232;5.192;2022-11-30T02:49:02;12.10;1.00
47384;DHT22;33129;52.232;5.192;2022-11-30T02:52:26;11.80;1.00
47384;DHT22;33129;52.232;5.192;2022-11-30T02:55:18;11.90;1.00
47384;DHT22;33129;52.232;5.192;2022-11-30T02:58:22;11.90;1.00
47384;DHT22;33129;52.232;5.192;2022-11-30T03:01:41;11.90;1.00
47384;DHT22;33129;52.232;5.192;2022-11-30T03:04:15;12.00;1.00
47384;DHT22;33129;52.232;5.192;2022-11-30T03:07:14;12.10;1.00
47384;DHT22;33129;52.232;5.192;2022-11-30T03:10:00;11.90;1.00
47384;DHT22;33129;52.232;5.192;2022-11-30T03:12:26;11.90;1.00
47384;DHT22;33129;52.232;5.192;2022-11-30T03:15:44;11.90;1.00
47384;DHT22;33129;52.232;5.192;2022-11-30T03:19:03;11.80;1.00
47384;DHT22;33129;52.232;5.192;2022-11-30T03:22:21;12.00;1.00
47384;DHT22;33129;52.232;5.192;2022-11-30T03:25:39;12.20;1.00
47384;DHT22;33129;52.232;5.192;2022-11-30T03:28:57;12.10;1.00
47384;DHT22;33129;52.232;5.192;2022-11-30T03:32:15;12.10;1.00
47384;DHT22;33129;52.232;5.192;2022-11-30T03:35:34;12.10;1.00
47384;DHT22;33129;52.232;5.192;2022-11-30T03:38:52;12.00;1.00
47384;DHT22;33129;52.232;5.192;2022-11-30T03:42:10;12.10;1.00
47384;DHT22;33129;52.232;5.192;2022-11-30T03:45:28;12.10;1.00
47384;DHT22;33129;52.232;5.192;2022-11-30T03:48:47;12.10;1.00
47384;DHT22;33129;52.232;5.192;2022-11-30T03:52:05;12.10;1.00
47384;DHT22;33129;52.232;5.192;2022-11-30T03:55:23;11.90;1.00
47384;DHT22;33129;52.232;5.192;2022-11-30T03:58:41;12.10;1.00
47384;DHT22;33129;52.232;5.192;2022-11-30T04:02:00;12.10;1.00
47384;DHT22;33129;52.232;5.192;2022-11-30T04:05:18;11.90;1.00
47384;DHT22;33129;52.232;5.192;2022-11-30T04:08:37;12.00;1.00
47384;DHT22;33129;52.232;5.192;2022-11-30T04:11:56;12.00;1.00
47384;DHT22;33129;52.232;5.192;2022-11-30T04:15:14;12.10;1.00
47384;DHT22;33129;52.232;5.192;2022-11-30T04:18:34;12.30;1.00
47384;DHT22;33129;52.232;5.192;2022-11-30T04:21:52;12.20;1.00
47384;DHT22;33129;52.232;5.192;2022-11-30T04:25:10;12.30;1.00
47384;DHT22;33129;52.232;5.192;2022-11-30T04:28:29;12.00;1.00
47384;DHT22;33129;52.232;5.192;2022-11-30T04:31:48;12.00;1.00
47384;DHT22;33129;52.232;5.192;2022-11-30T04:35:06;11.90;1.00
47384;DHT22;33129;52.232;5.192;2022-11-30T04:38:26;12.00;1.00
47384;DHT22;33129;52.232;5.192;2022-11-30T04:41:44;12.10;1.00
47384;DHT22;33129;52.232;5.192;2022-11-30T04:45:03;12.10;1.00
47384;DHT22;33129;52.232;5.192;2022-11-30T04:48:21;11.90;1.00
47384;DHT22;33129;52.232;5.192;2022-11-30T04:51:39;11.70;1.00
47384;DHT22;33129;52.232;5.192;2022-11-30T04:54:58;11.60;1.00
47384;DHT22;33129;52.232;5.192;2022-11-30T04:58:16;11.70;1.00
47384;DHT22;33129;52.232;5.192;2022-11-30T05:01:34;12.00;1.00
47384;DHT22;33129;52.232;5.192;2022-11-30T05:04:53;11.70;1.00
47384;DHT22;33129;52.232;5.192;2022-11-30T05:08:11;11.80;1.00
47384;DHT22;33129;52.232;5.192;2022-11-30T05:11:29;11.90;1.00
47384;DHT22;33129;52.232;5.192;2022-11-30T05:14:48;12.10;1.00
47384;DHT22;33129;52.232;5.192;2022-11-30T05:18:06;11.70;1.00
47384;DHT22;33129;52.232;5.192;2022-11-30T05:21:24;11.90;1.00
47384;DHT22;33129;52.232;5.192;2022-11-30T05:24:42;11.90;1.00
47384;DHT22;33129;52.232;5.192;2022-11-30T05:28:00;12.10;1.00
47384;DHT22;33129;52.232;5.192;2022-11-30T05:31:19;12.00;1.00
47384;DHT22;33129;52.232;5.192;2022-11-30T05:34:33;12.00;1.00
47384;DHT22;33129;52.232;5.192;2022-11-30T05:37:52;12.00;1.00
47384;DHT22;33129;52.232;5.192;2022-11-30T05:41:10;11.70;1.00
47384;DHT22;33129;52.232;5.192;2022-11-30T05:44:28;11.80;1.00
47384;DHT22;33129;52.232;5.192;2022-11-30T05:47:46;11.90;1.00
47384;DHT22;33129;52.232;5.192;2022-11-30T05:51:08;11.80;1.00
47384;DHT22;33129;52.232;5.192;2022-11-30T05:54:27;11.90;1.00
47384;DHT22;33129;52.232;5.192;2022-11-30T05:57:45;11.70;1.00
47384;DHT22;33129;52.232;5.192;2022-11-30T06:01:03;11.90;1.00
47384;DHT22;33129;52.232;5.192;2022-11-30T06:04:22;11.90;1.00
47384;DHT22;33129;52.232;5.192;2022-11-30T06:07:40;12.00;1.00
47384;DHT22;33129;52.232;5.192;2022-11-30T06:10:59;11.80;1.00
47384;DHT22;33129;52.232;5.192;2022-11-30T06:14:17;11.90;1.00
47384;DHT22;33129;52.232;5.192;2022-11-30T06:17:36;11.80;1.00
47384;DHT22;33129;52.232;5.192;2022-11-30T06:20:58;11.90;1.00
47384;DHT22;33129;52.232;5.192;2022-11-30T06:24:16;11.80;1.00
47384;DHT22;33129;52.232;5.192;2022-11-30T06:27:34;11.60;1.00
47384;DHT22;33129;52.232;5.192;2022-11-30T06:30:57;11.50;1.00
47384;DHT22;33129;52.232;5.192;2022-11-30T06:34:15;11.40;1.00
47384;DHT22;33129;52.232;5.192;2022-11-30T06:37:33;11.40;1.00
47384;DHT22;33129;52.232;5.192;2022-11-30T06:40:46;11.30;1.00
47384;DHT22;33129;52.232;5.192;2022-11-30T06:44:09;11.40;1.00
47384;DHT22;33129;52.232;5.192;2022-11-30T06:47:27;11.40;1.00
47384;DHT22;33129;52.232;5.192;2022-11-30T06:50:41;11.40;1.00
47384;DHT22;33129;52.232;5.192;2022-11-30T06:54:01;11.50;1.00
47384;DHT22;33129;52.232;5.192;2022-11-30T06:57:19;11.10;1.00
47384;DHT22;33129;52.232;5.192;2022-11-30T07:00:38;11.40;1.00
47384;DHT22;33129;52.232;5.192;2022-11-30T07:03:56;11.00;1.00
47384;DHT22;33129;52.232;5.192;2022-11-30T07:07:14;11.20;1.00
47384;DHT22;33129;52.232;5.192;2022-11-30T07:10:32;11.40;1.00
47384;DHT22;33129;52.232;5.192;2022-11-30T07:13:50;11.10;1.00
47384;DHT22;33129;52.232;5.192;2022-11-30T07:17:09;11.10;1.00
47384;DHT22;33129;52.232;5.192;2022-11-30T07:20:27;10.90;1.00
47384;DHT22;33129;52.232;5.192;2022-11-30T07:23:45;11.20;1.00
47384;DHT22;33129;52.232;5.192;2022-11-30T07:27:22;10.90;1.00
47384;DHT22;33129;52.232;5.192;2022-11-30T07:30:40;10.90;1.00
47384;DHT22;33129;52.232;5.192;2022-11-30T07:34:05;10.80;1.00
47384;DHT22;33129;52.232;5.192;2022-11-30T07:37:24;10.90;1.00
47384;DHT22;33129;52.232;5.192;2022-11-30T07:40:42;10.70;1.00
47384;DHT22;33129;52.232;5.192;2022-11-30T07:44:03;11.00;1.00
47384;DHT22;33129;52.232;5.192;2022-11-30T07:47:21;10.90;1.00
47384;DHT22;33129;52.232;5.192;2022-11-30T07:50:38;11.00;1.00
47384;DHT22;33129;52.232;5.192;2022-11-30T07:53:57;10.90;1.00
47384;DHT22;33129;52.232;5.192;2022-11-30T07:57:15;10.80;1.00
47384;DHT22;33129;52.232;5.192;2022-11-30T08:00:34;11.00;1.00
47384;DHT22;33129;52.232;5.192;2022-11-30T08:03:41;10.80;1.00
47384;DHT22;33129;52.232;5.192;2022-11-30T08:06:57;11.10;1.00
47384;DHT22;33129;52.232;5.192;2022-11-30T08:10:17;11.10;1.00
47384;DHT22;33129;52.232;5.192;2022-11-30T08:13:33;10.80;1.00
47384;DHT22;33129;52.232;5.192;2022-11-30T08:16:45;11.00;1.00
47384;DHT22;33129;52.232;5.192;2022-11-30T08:19:30;11.50;1.00
47384;DHT22;33129;52.232;5.192;2022-11-30T08:22:42;11.60;1.00
47384;DHT22;33129;52.232;5.192;2022-11-30T08:25:46;11.50;1.00
47384;DHT22;33129;52.232;5.192;2022-11-30T08:29:03;11.80;1.00
47384;DHT22;33129;52.232;5.192;2022-11-30T08:31:51;11.70;1.00
47384;DHT22;33129;52.232;5.192;2022-11-30T08:34:24;11.60;1.00
47384;DHT22;33129;52.232;5.192;2022-11-30T08:36:51;11.80;1.00
47384;DHT22;33129;52.232;5.192;2022-11-30T08:39:19;11.70;1.00
47384;DHT22;33129;52.232;5.192;2022-11-30T08:41:45;11.50;1.00
47384;DHT22;33129;52.232;5.192;2022-11-30T08:44:11;11.40;1.00
47384;DHT22;33129;52.232;5.192;2022-11-30T08:46:37;11.10;1.00
47384;DHT22;33129;52.232;5.192;2022-11-30T08:49:03;11.50;1.00
47384;DHT22;33129;52.232;5.192;2022-11-30T08:51:35;11.60;1.00
47384;DHT22;33129;52.232;5.192;2022-11-30T08:54:15;11.40;1.00
47384;DHT22;33129;52.232;5.192;2022-11-30T08:57:22;11.40;1.00
47384;DHT22;33129;52.232;5.192;2022-11-30T09:00:03;11.50;1.00
47384;DHT22;33129;52.232;5.192;2022-11-30T09:03:20;11.50;1.00
47384;DHT22;33129;52.232;5.192;2022-11-30T09:05:53;11.70;1.00
47384;DHT22;33129;52.232;5.192;2022-11-30T09:08:53;11.70;1.00
47384;DHT22;33129;52.232;5.192;2022-11-30T09:12:00;11.50;1.00
47384;DHT22;33129;52.232;5.192;2022-11-30T09:14:37;11.50;1.00
47384;DHT22;33129;52.232;5.192;2022-11-30T09:17:19;11.50;1.00
47384;DHT22;33129;52.232;5.192;2022-11-30T09:20:05;11.50;1.00
47384;DHT22;33129;52.232;5.192;2022-11-30T09:22:37;11.90;1.00
47384;DHT22;33129;52.232;5.192;2022-11-30T09:25:03;11.60;1.00
47384;DHT22;33129;52.232;5.192;2022-11-30T09:27:32;11.80;1.00
47384;DHT22;33129;52.232;5.192;2022-11-30T09:29:58;12.10;1.00
47384;DHT22;33129;52.232;5.192;2022-11-30T09:32:24;11.80;1.00
47384;DHT22;33129;52.232;5.192;2022-11-30T09:35:42;12.00;1.00
47384;DHT22;33129;52.232;5.192;2022-11-30T09:38:08;12.00;1.00
47384;DHT22;33129;52.232;5.192;2022-11-30T09:48:22;12.40;1.00
47384;DHT22;33129;52.232;5.192;2022-11-30T09:51:42;12.30;1.00
47384;DHT22;33129;52.232;5.192;2022-11-30T09:55:00;12.00;1.00
47384;DHT22;33129;52.232;5.192;2022-11-30T09:57:44;11.90;1.00
47384;DHT22;33129;52.232;5.192;2022-11-30T10:00:23;12.00;1.00
47384;DHT22;33129;52.232;5.192;2022-11-30T10:03:03;12.10;1.00
47384;DHT22;33129;52.232;5.192;2022-11-30T10:05:55;12.60;1.00
47384;DHT22;33129;52.232;5.192;2022-11-30T10:09:47;12.80;1.00
47384;DHT22;33129;52.232;5.192;2022-11-30T10:13:26;14.80;1.00
47384;DHT22;33129;52.232;5.192;2022-11-30T10:17:36;14.50;1.00
47384;DHT22;33129;52.232;5.192;2022-11-30T10:25:05;13.20;1.00
47384;DHT22;33129;52.232;5.192;2022-11-30T10:29:18;13.00;1.00
47384;DHT22;33129;52.232;5.192;2022-11-30T10:32:39;12.70;1.00
47384;DHT22;33129;52.232;5.192;2022-11-30T10:36:12;12.20;1.00
47384;DHT22;33129;52.232;5.192;2022-11-30T10:40:04;12.10;1.00
47384;DHT22;33129;52.232;5.192;2022-11-30T10:43:36;11.80;1.00
47384;DHT22;33129;52.232;5.192;2022-11-30T10:47:15;12.10;1.00
47384;DHT22;33129;52.232;5.192;2022-11-30T10:51:01;12.00;1.00
47384;DHT22;33129;52.232;5.192;2022-11-30T10:53:53;12.40;1.00
47384;DHT22;33129;52.232;5.192;2022-11-30T10:57:17;12.00;1.00
47384;DHT22;33129;52.232;5.192;2022-11-30T11:00:51;12.10;1.00
47384;DHT22;33129;52.232;5.192;2022-11-30T11:07:47;11.90;1.00
47384;DHT22;33129;52.232;5.192;2022-11-30T11:11:42;12.20;1.00
47384;DHT22;33129;52.232;5.192;2022-11-30T11:18:52;12.50;1.00
47384;DHT22;33129;52.232;5.192;2022-11-30T11:22:15;12.70;1.00
47384;DHT22;33129;52.232;5.192;2022-11-30T11:25:49;12.50;1.00
47384;DHT22;33129;52.232;5.192;2022-11-30T11:29:24;12.30;1.00
47384;DHT22;33129;52.232;5.192;2022-11-30T11:33:19;12.50;1.00
47384;DHT22;33129;52.232;5.192;2022-11-30T11:37:15;12.80;1.00
47384;DHT22;33129;52.232;5.192;2022-11-30T11:41:05;12.60;1.00
47384;DHT22;33129;52.232;5.192;2022-11-30T11:44:28;12.60;1.00
47384;DHT22;33129;52.232;5.192;2022-11-30T11:51:29;12.70;1.00
47384;DHT22;33129;52.232;5.192;2022-11-30T11:55:12;12.80;1.00
47384;DHT22;33129;52.232;5.192;2022-11-30T11:59:13;13.50;1.00
47384;DHT22;33129;52.232;5.192;2022-11-30T12:02:54;13.60;1.00
47384;DHT22;33129;52.232;5.192;2022-11-30T12:06:41;13.20;1.00
47384;DHT22;33129;52.232;5.192;2022-11-30T12:13:45;13.70;1.00
47384;DHT22;33129;52.232;5.192;2022-11-30T12:17:23;14.20;1.00
47384;DHT22;33129;52.232;5.192;2022-11-30T12:20:58;14.30;1.00
47384;DHT22;33129;52.232;5.192;2022-11-30T12:28:16;13.80;1.00
47384;DHT22;33129;52.232;5.192;2022-11-30T12:35:33;14.60;1.00
47384;DHT22;33129;52.232;5.192;2022-11-30T12:39:02;15.20;1.00
47384;DHT22;33129;52.232;5.192;2022-11-30T12:50:36;15.00;1.00
47384;DHT22;33129;52.232;5.192;2022-11-30T12:58:09;14.50;1.00
47384;DHT22;33129;52.232;5.192;2022-11-30T13:04:54;14.50;1.00
47384;DHT22;33129;52.232;5.192;2022-11-30T13:08:43;14.10;1.00
47384;DHT22;33129;52.232;5.192;2022-11-30T13:12:09;14.00;1.00
47384;DHT22;33129;52.232;5.192;2022-11-30T13:15:26;13.70;1.00
47384;DHT22;33129;52.232;5.192;2022-11-30T13:18:46;14.00;1.00
47384;DHT22;33129;52.232;5.192;2022-11-30T13:22:21;14.10;1.00
47384;DHT22;33129;52.232;5.192;2022-11-30T13:37:17;13.40;1.00
47384;DHT22;33129;52.232;5.192;2022-11-30T13:40:40;12.90;1.00
47384;DHT22;33129;52.232;5.192;2022-11-30T13:43:59;13.10;1.00
47384;DHT22;33129;52.232;5.192;2022-11-30T13:47:31;12.90;1.00
47384;DHT22;33129;52.232;5.192;2022-11-30T13:55:50;13.30;1.00
47384;DHT22;33129;52.232;5.192;2022-11-30T14:21:25;12.40;1.00
47384;DHT22;33129;52.232;5.192;2022-11-30T14:26:41;12.50;1.00
47384;DHT22;33129;52.232;5.192;2022-11-30T14:29:24;12.10;1.00
47384;DHT22;33129;52.232;5.192;2022-11-30T14:31:58;12.00;1.00
47384;DHT22;33129;52.232;5.192;2022-11-30T14:34:51;12.40;1.00
47384;DHT22;33129;52.232;5.192;2022-11-30T14:37:34;12.40;1.00
47384;DHT22;33129;52.232;5.192;2022-11-30T14:40:15;12.20;1.00
47384;DHT22;33129;52.232;5.192;2022-11-30T14:43:16;12.20;1.00
47384;DHT22;33129;52.232;5.192;2022-11-30T14:46:04;12.10;1.00
47384;DHT22;33129;52.232;5.192;2022-11-30T14:49:04;12.00;1.00
47384;DHT22;33129;52.232;5.192;2022-11-30T14:51:58;12.10;1.00
47384;DHT22;33129;52.232;5.192;2022-11-30T14:59:22;12.00;1.00
47384;DHT22;33129;52.232;5.192;2022-11-30T15:02:44;11.90;1.00
47384;DHT22;33129;52.232;5.192;2022-11-30T15:06:04;12.10;1.00
47384;DHT22;33129;52.232;5.192;2022-11-30T15:09:29;11.90;1.00
47384;DHT22;33129;52.232;5.192;2022-11-30T15:12:49;11.70;1.00
47384;DHT22;33129;52.232;5.192;2022-11-30T15:15:52;12.20;1.00
47384;DHT22;33129;52.232;5.192;2022-11-30T15:22:44;11.40;1.00
47384;DHT22;33129;52.232;5.192;2022-11-30T15:26:14;11.50;1.00
47384;DHT22;33129;52.232;5.192;2022-11-30T15:29:31;11.50;1.00
47384;DHT22;33129;52.232;5.192;2022-11-30T15:32:50;11.50;1.00
47384;DHT22;33129;52.232;5.192;2022-11-30T15:36:12;11.40;1.00
47384;DHT22;33129;52.232;5.192;2022-11-30T15:39:03;11.40;1.00
47384;DHT22;33129;52.232;5.192;2022-11-30T15:41:59;11.20;1.00
47384;DHT22;33129;52.232;5.192;2022-11-30T15:45:25;11.20;1.00
47384;DHT22;33129;52.232;5.192;2022-11-30T15:49:33;11.30;1.00
47384;DHT22;33129;52.232;5.192;2022-11-30T15:53:03;11.30;1.00
47384;DHT22;33129;52.232;5.192;2022-11-30T15:56:36;11.20;1.00
47384;DHT22;33129;52.232;5.192;2022-11-30T15:59:26;11.10;1.00
47384;DHT22;33129;52.232;5.192;2022-11-30T16:01:57;11.20;1.00
47384;DHT22;33129;52.232;5.192;2022-11-30T16:07:31;11.60;1.00
47384;DHT22;33129;52.232;5.192;2022-11-30T16:10:26;11.30;1.00
47384;DHT22;33129;52.232;5.192;2022-11-30T16:13:00;11.40;1.00
47384;DHT22;33129;52.232;5.192;2022-11-30T16:15:52;11.30;1.00
47384;DHT22;33129;52.232;5.192;2022-11-30T16:18:24;11.40;1.00
47384;DHT22;33129;52.232;5.192;2022-11-30T16:20:54;11.30;1.00
47384;DHT22;33129;52.232;5.192;2022-11-30T16:23:22;11.30;1.00
47384;DHT22;33129;52.232;5.192;2022-11-30T16:25:48;11.60;1.00
47384;DHT22;33129;52.232;5.192;2022-11-30T16:28:16;11.20;1.00
47384;DHT22;33129;52.232;5.192;2022-11-30T16:30:44;11.50;1.00
47384;DHT22;33129;52.232;5.192;2022-11-30T16:33:15;11.40;1.00
47384;DHT22;33129;52.232;5.192;2022-11-30T16:38:23;11.40;1.00
47384;DHT22;33129;52.232;5.192;2022-11-30T16:40:49;11.30;1.00
47384;DHT22;33129;52.232;5.192;2022-11-30T16:43:16;11.50;1.00
47384;DHT22;33129;52.232;5.192;2022-11-30T16:45:43;11.10;1.00
47384;DHT22;33129;52.232;5.192;2022-11-30T16:48:10;11.50;1.00
47384;DHT22;33129;52.232;5.192;2022-11-30T16:50:36;11.10;1.00
47384;DHT22;33129;52.232;5.192;2022-11-30T16:53:03;11.10;1.00
47384;DHT22;33129;52.232;5.192;2022-11-30T16:55:32;11.10;1.00
47384;DHT22;33129;52.232;5.192;2022-11-30T16:58:05;11.00;1.00
47384;DHT22;33129;52.232;5.192;2022-11-30T17:00:32;11.00;1.00
47384;DHT22;33129;52.232;5.192;2022-11-30T17:03:33;10.80;1.00
47384;DHT22;33129;52.232;5.192;2022-11-30T17:05:52;11.00;1.00
47384;DHT22;33129;52.232;5.192;2022-11-30T17:09:00;10.90;1.00
47384;DHT22;33129;52.232;5.192;2022-11-30T17:11:53;10.70;1.00
47384;DHT22;33129;52.232;5.192;2022-11-30T17:15:18;10.80;1.00
47384;DHT22;33129;52.232;5.192;2022-11-30T17:18:37;10.80;1.00
47384;DHT22;33129;52.232;5.192;2022-11-30T17:21:55;10.60;1.00
47384;DHT22;33129;52.232;5.192;2022-11-30T17:25:17;10.60;1.00
47384;DHT22;33129;52.232;5.192;2022-11-30T17:28:28;10.80;1.00
47384;DHT22;33129;52.232;5.192;2022-11-30T17:31:28;11.20;1.00
47384;DHT22;33129;52.232;5.192;2022-11-30T17:34:47;11.00;1.00
47384;DHT22;33129;52.232;5.192;2022-11-30T17:37:55;10.70;1.00
47384;DHT22;33129;52.232;5.192;2022-11-30T17:41:19;10.90;1.00
47384;DHT22;33129;52.232;5.192;2022-11-30T17:44:41;10.90;1.00
47384;DHT22;33129;52.232;5.192;2022-11-30T17:47:50;11.00;1.00
47384;DHT22;33129;52.232;5.192;2022-11-30T17:51:07;10.80;1.00
47384;DHT22;33129;52.232;5.192;2022-11-30T17:54:25;10.70;1.00
47384;DHT22;33129;52.232;5.192;2022-11-30T17:57:43;10.80;1.00
47384;DHT22;33129;52.232;5.192;2022-11-30T18:01:06;10.70;1.00
47384;DHT22;33129;52.232;5.192;2022-11-30T18:04:25;10.80;1.00
47384;DHT22;33129;52.232;5.192;2022-11-30T18:07:44;10.80;1.00
47384;DHT22;33129;52.232;5.192;2022-11-30T18:11:08;10.80;1.00
47384;DHT22;33129;52.232;5.192;2022-11-30T18:14:26;10.90;1.00
47384;DHT22;33129;52.232;5.192;2022-11-30T18:17:44;11.00;1.00
47384;DHT22;33129;52.232;5.192;2022-11-30T18:21:08;11.00;1.00
47384;DHT22;33129;52.232;5.192;2022-11-30T18:24:26;10.70;1.00
47384;DHT22;33129;52.232;5.192;2022-11-30T18:27:45;10.90;1.00
47384;DHT22;33129;52.232;5.192;2022-11-30T18:31:03;10.80;1.00
47384;DHT22;33129;52.232;5.192;2022-11-30T18:34:21;10.70;1.00
47384;DHT22;33129;52.232;5.192;2022-11-30T18:37:39;11.00;1.00
47384;DHT22;33129;52.232;5.192;2022-11-30T18:40:57;10.80;1.00
47384;DHT22;33129;52.232;5.192;2022-11-30T18:44:15;10.80;1.00
47384;DHT22;33129;52.232;5.192;2022-11-30T18:47:34;10.70;1.00
47384;DHT22;33129;52.232;5.192;2022-11-30T18:50:52;10.90;1.00
47384;DHT22;33129;52.232;5.192;2022-11-30T18:54:10;11.10;1.00
47384;DHT22;33129;52.232;5.192;2022-11-30T18:57:29;10.90;1.00
47384;DHT22;33129;52.232;5.192;2022-11-30T19:00:47;10.80;1.00
47384;DHT22;33129;52.232;5.192;2022-11-30T19:04:07;10.70;1.00
47384;DHT22;33129;52.232;5.192;2022-11-30T19:07:26;10.70;1.00
47384;DHT22;33129;52.232;5.192;2022-11-30T19:10:44;10.70;1.00
47384;DHT22;33129;52.232;5.192;2022-11-30T19:14:03;11.10;1.00
47384;DHT22;33129;52.232;5.192;2022-11-30T19:17:21;10.90;1.00
47384;DHT22;33129;52.232;5.192;2022-11-30T19:20:40;10.60;1.00
47384;DHT22;33129;52.232;5.192;2022-11-30T19:23:58;10.70;1.00
47384;DHT22;33129;52.232;5.192;2022-11-30T19:27:17;10.40;1.00
47384;DHT22;33129;52.232;5.192;2022-11-30T19:30:37;10.10;1.00
47384;DHT22;33129;52.232;5.192;2022-11-30T19:33:56;10.30;1.00
47384;DHT22;33129;52.232;5.192;2022-11-30T19:37:14;10.00;1.00
47384;DHT22;33129;52.232;5.192;2022-11-30T19:40:32;9.90;1.00
47384;DHT22;33129;52.232;5.192;2022-11-30T19:43:59;10.20;1.00
47384;DHT22;33129;52.232;5.192;2022-11-30T19:47:17;10.30;1.00
47384;DHT22;33129;52.232;5.192;2022-11-30T19:50:36;10.10;1.00
47384;DHT22;33129;52.232;5.192;2022-11-30T19:53:54;10.00;1.00
47384;DHT22;33129;52.232;5.192;2022-11-30T19:57:13;10.40;1.00
47384;DHT22;33129;52.232;5.192;2022-11-30T20:00:31;10.50;1.00
47384;DHT22;33129;52.232;5.192;2022-11-30T20:03:52;10.30;1.00
47384;DHT22;33129;52.232;5.192;2022-11-30T20:07:11;10.50;1.00
47384;DHT22;33129;52.232;5.192;2022-11-30T20:10:32;10.30;1.00
47384;DHT22;33129;52.232;5.192;2022-11-30T20:13:51;10.10;1.00
47384;DHT22;33129;52.232;5.192;2022-11-30T20:17:12;10.40;1.00
47384;DHT22;33129;52.232;5.192;2022-11-30T20:20:31;10.40;1.00
47384;DHT22;33129;52.232;5.192;2022-11-30T20:23:52;10.20;1.00
47384;DHT22;33129;52.232;5.192;2022-11-30T20:27:11;10.10;1.00
47384;DHT22;33129;52.232;5.192;2022-11-30T20:30:32;10.10;1.00
47384;DHT22;33129;52.232;5.192;2022-11-30T20:33:54;10.10;1.00
47384;DHT22;33129;52.232;5.192;2022-11-30T20:37:12;9.90;1.00
47384;DHT22;33129;52.232;5.192;2022-11-30T20:40:31;9.80;1.00
47384;DHT22;33129;52.232;5.192;2022-11-30T20:43:50;9.80;1.00
47384;DHT22;33129;52.232;5.192;2022-11-30T20:47:08;9.80;1.00
47384;DHT22;33129;52.232;5.192;2022-11-30T20:50:27;9.90;1.00
47384;DHT22;33129;52.232;5.192;2022-11-30T20:53:49;10.00;1.00
47384;DHT22;33129;52.232;5.192;2022-11-30T20:57:12;10.00;1.00
47384;DHT22;33129;52.232;5.192;2022-11-30T21:00:32;9.70;1.00
47384;DHT22;33129;52.232;5.192;2022-11-30T21:03:50;9.80;1.00
47384;DHT22;33129;52.232;5.192;2022-11-30T21:07:12;9.80;1.00
47384;DHT22;33129;52.232;5.192;2022-11-30T21:10:30;10.00;1.00
47384;DHT22;33129;52.232;5.192;2022-11-30T21:13:52;10.10;1.00
47384;DHT22;33129;52.232;5.192;2022-11-30T21:17:13;9.80;1.00
47384;DHT22;33129;52.232;5.192;2022-11-30T21:20:32;9.90;1.00
47384;DHT22;33129;52.232;5.192;2022-11-30T21:24:00;9.70;1.00
47384;DHT22;33129;52.232;5.192;2022-11-30T21:27:21;9.70;1.00
47384;DHT22;33129;52.232;5.192;2022-11-30T21:30:40;9.40;1.00
47384;DHT22;33129;52.232;5.192;2022-11-30T21:34:01;9.60;1.00
47384;DHT22;33129;52.232;5.192;2022-11-30T21:37:20;9.70;1.00
47384;DHT22;33129;52.232;5.192;2022-11-30T21:40:38;9.60;1.00
47384;DHT22;33129;52.232;5.192;2022-11-30T21:43:53;9.90;1.00
47384;DHT22;33129;52.232;5.192;2022-11-30T21:47:11;9.70;1.00
47384;DHT22;33129;52.232;5.192;2022-11-30T21:50:30;9.70;1.00
47384;DHT22;33129;52.232;5.192;2022-11-30T21:53:55;9.80;1.00
47384;DHT22;33129;52.232;5.192;2022-11-30T21:57:19;9.60;1.00
47384;DHT22;33129;52.232;5.192;2022-11-30T22:00:36;9.60;1.00
47384;DHT22;33129;52.232;5.192;2022-11-30T22:04:01;9.50;1.00
47384;DHT22;33129;52.232;5.192;2022-11-30T22:07:19;9.70;1.00
47384;DHT22;33129;52.232;5.192;2022-11-30T22:10:38;9.70;1.00
47384;DHT22;33129;52.232;5.192;2022-11-30T22:13:57;9.60;1.00
47384;DHT22;33129;52.232;5.192;2022-11-30T22:17:15;9.70;1.00
47384;DHT22;33129;52.232;5.192;2022-11-30T22:20:34;9.60;1.00
47384;DHT22;33129;52.232;5.192;2022-11-30T22:23:56;9.50;1.00
47384;DHT22;33129;52.232;5.192;2022-11-30T22:27:02;9.20;1.00
47384;DHT22;33129;52.232;5.192;2022-11-30T22:30:20;9.70;1.00